createdAt,value
2023-02-06T00:01:30.060Z,102521.44
2023-02-06T00:03:35.463Z,102523.02
2023-02-06T00:05:40.910Z,102520.67
2023-02-06T00:07:46.876Z,102520.41
2023-02-06T00:09:52.515Z,102515.46
2023-02-06T00:11:57.862Z,102511.17
2023-02-06T00:14:03.155Z,102516.96
2023-02-06T00:16:08.847Z,102515.22
2023-02-06T00:18:14.419Z,102519.25
2023-02-06T00:20:19.932Z,102516.23
2023-02-06T00:22:26.421Z,102515.88
2023-02-06T00:24:31.884Z,102524.16
2023-02-06T00:26:37.548Z,102519.66
2023-02-06T00:28:42.788Z,102512.92
2023-02-06T00:30:48.579Z,102507.7
2023-02-06T00:32:57.314Z,102515.32
2023-02-06T00:35:03.171Z,102513.44
2023-02-06T00:37:08.598Z,102508.98
2023-02-06T00:39:13.662Z,102509.5
2023-02-06T00:41:19.147Z,102517.08
2023-02-06T00:43:24.669Z,102517.48
2023-02-06T00:45:30.065Z,102520.83
2023-02-06T00:47:35.824Z,102509.81
2023-02-06T00:49:41.408Z,102508.08
2023-02-06T00:51:46.582Z,102511.87
2023-02-06T00:53:52.701Z,102510.46
2023-02-06T00:55:57.954Z,102506.55
2023-02-06T00:58:03.741Z,102510.99
2023-02-06T01:00:09.163Z,102511.58
2023-02-06T01:02:14.628Z,102503.95
2023-02-06T01:04:19.894Z,102503.41
2023-02-06T01:06:25.695Z,102500.69
2023-02-06T01:08:30.905Z,102498.5
2023-02-06T01:10:36.324Z,102492.66
2023-02-06T01:12:42.234Z,102491.07
2023-02-06T01:14:47.986Z,102492.81
2023-02-06T01:16:53.568Z,102491.42
2023-02-06T01:18:59.313Z,102484.05
2023-02-06T01:21:05.070Z,102480.96
2023-02-06T01:23:10.665Z,102481.87
2023-02-06T01:25:15.898Z,102480.45
2023-02-06T01:27:21.904Z,102475.78
2023-02-06T01:29:27.062Z,102481.23
2023-02-06T01:31:32.584Z,102480.03
2023-02-06T01:33:39.553Z,102480.84
2023-02-06T01:35:45.242Z,102471.48
2023-02-06T01:37:50.620Z,102474.84
2023-02-06T01:39:55.716Z,102472.16
2023-02-06T01:42:01.233Z,102468.58
2023-02-06T01:44:06.428Z,102461.62
2023-02-06T01:46:11.926Z,102463.84
2023-02-06T01:48:18.112Z,102463.19
2023-02-06T01:50:23.489Z,102462.2
2023-02-06T01:52:28.906Z,102456.61
2023-02-06T01:54:33.856Z,102457.08
2023-02-06T01:56:39.122Z,102457.55
2023-02-06T01:58:44.940Z,102456.88
2023-02-06T02:00:50.332Z,102451.45
2023-02-06T02:02:56.938Z,102449.59
2023-02-06T02:05:02.459Z,102449.55
2023-02-06T02:07:07.824Z,102447.16
2023-02-06T02:09:15.314Z,102450.61
2023-02-06T02:11:20.556Z,102458.98
2023-02-06T02:13:26.190Z,102467.41
2023-02-06T02:15:31.422Z,102470.2
2023-02-06T02:17:37.352Z,102468.25
2023-02-06T02:19:42.552Z,102476.2
2023-02-06T02:21:47.798Z,102480.27
2023-02-06T02:23:53.236Z,102479.36
2023-02-06T02:25:58.750Z,102477.83
2023-02-06T02:28:04.329Z,102476.16
2023-02-06T02:30:09.820Z,102476.06
2023-02-06T02:32:15.391Z,102476.52
2023-02-06T02:34:21.021Z,102477.62
2023-02-06T02:36:26.331Z,102474.2
2023-02-06T02:38:31.762Z,102477
2023-02-06T02:40:37.269Z,102475.65
2023-02-06T02:42:42.807Z,102473.08
2023-02-06T02:44:48.020Z,102477.94
2023-02-06T02:46:53.653Z,102479.34
2023-02-06T02:48:59.091Z,102482.7
2023-02-06T02:51:04.598Z,102491.18
2023-02-06T02:53:10.037Z,102494.11
2023-02-06T02:55:16.008Z,102497.17
2023-02-06T02:57:20.927Z,102500.63
2023-02-06T02:59:26.196Z,102501.48
2023-02-06T03:01:32.969Z,102497.45
2023-02-06T03:03:38.809Z,102505.09
2023-02-06T03:05:44.146Z,102503.63
2023-02-06T03:07:49.866Z,102503.45
2023-02-06T03:09:55.469Z,102499.22
2023-02-06T03:12:00.910Z,102501.86
2023-02-06T03:14:06.036Z,102495.89
2023-02-06T03:16:11.783Z,102497.32
2023-02-06T03:18:17.263Z,102495.48
2023-02-06T03:20:22.406Z,102494.09
2023-02-06T03:22:27.549Z,102494.02
2023-02-06T03:24:32.738Z,102486.53
2023-02-06T03:26:38.049Z,102492.34
2023-02-06T03:28:43.382Z,102491.69
2023-02-06T03:30:48.658Z,102493.47
2023-02-06T03:32:54.077Z,102495.11
2023-02-06T03:34:59.296Z,102487.69
2023-02-06T03:37:04.598Z,102487.09
2023-02-06T03:39:09.612Z,102486.26
2023-02-06T03:41:14.733Z,102480.15
2023-02-06T03:43:20.144Z,102483.2
2023-02-06T03:45:25.445Z,102486.84
2023-02-06T03:47:30.624Z,102489.35
2023-02-06T03:49:35.839Z,102490.59
2023-02-06T03:51:40.951Z,102486.12
2023-02-06T03:53:46.092Z,102484.67
2023-02-06T03:55:51.342Z,102494.8
2023-02-06T03:57:56.533Z,102490.03
2023-02-06T04:00:01.623Z,102484.78
2023-02-06T04:02:06.765Z,102488.48
2023-02-06T04:04:11.968Z,102485.97
2023-02-06T04:06:17.290Z,102500.91
2023-02-06T04:08:22.465Z,102497.23
2023-02-06T04:10:27.772Z,102499.41
2023-02-06T04:12:32.845Z,102500.86
2023-02-06T04:14:38.191Z,102500.86
2023-02-06T04:16:43.458Z,102499.09
2023-02-06T04:18:48.809Z,102495.16
2023-02-06T04:20:53.931Z,102498.04
2023-02-06T04:22:59.257Z,102493.27
2023-02-06T04:25:04.613Z,102495.09
2023-02-06T04:27:09.709Z,102488.17
2023-02-06T04:29:15.011Z,102482.97
2023-02-06T04:31:20.171Z,102482.21
2023-02-06T04:33:25.508Z,102479.5
2023-02-06T04:35:30.709Z,102482.63
2023-02-06T04:37:36.071Z,102484.9
2023-02-06T04:39:41.290Z,102482.33
2023-02-06T04:41:46.320Z,102482.19
2023-02-06T04:43:51.491Z,102482.98
2023-02-06T04:45:56.917Z,102482.03
2023-02-06T04:48:02.141Z,102482.84
2023-02-06T04:50:07.415Z,102485.17
2023-02-06T04:52:12.777Z,102484.9
2023-02-06T04:54:18.125Z,102482.34
2023-02-06T04:56:23.262Z,102477.84
2023-02-06T04:58:28.555Z,102471.84
2023-02-06T05:00:33.707Z,102475.5
2023-02-06T05:02:41.599Z,102475.33
2023-02-06T05:04:46.987Z,102476.69
2023-02-06T05:06:52.033Z,102478.61
2023-02-06T05:08:57.346Z,102476.78
2023-02-06T05:11:02.590Z,102479.58
2023-02-06T05:13:07.692Z,102480.32
2023-02-06T05:15:13.118Z,102488.83
2023-02-06T05:17:18.120Z,102487.7
2023-02-06T05:19:23.313Z,102487.85
2023-02-06T05:21:28.725Z,102487.1
2023-02-06T05:23:33.979Z,102492.05
2023-02-06T05:25:41.365Z,102492.55
2023-02-06T05:27:50.447Z,102490.6
2023-02-06T05:29:56.163Z,102491.67
2023-02-06T05:32:01.433Z,102492.16
2023-02-06T05:34:06.572Z,102494.59
2023-02-06T05:36:11.835Z,102496.19
2023-02-06T05:38:16.983Z,102492.28
2023-02-06T05:40:22.227Z,102492.56
2023-02-06T05:42:27.375Z,102494.64
2023-02-06T05:44:32.539Z,102497.48
2023-02-06T05:46:37.814Z,102500.78
2023-02-06T05:48:43.304Z,102509.25
2023-02-06T05:50:48.594Z,102500.82
2023-02-06T05:52:53.864Z,102500.3
2023-02-06T05:55:00.037Z,102499.37
2023-02-06T05:57:05.351Z,102497.23
2023-02-06T05:59:10.692Z,102501.63
2023-02-06T06:01:15.820Z,102501.98
2023-02-06T06:03:21.002Z,102503.98
2023-02-06T06:05:26.244Z,102506.16
2023-02-06T06:07:31.392Z,102504.68
2023-02-06T06:09:36.543Z,102503.53
2023-02-06T06:11:41.803Z,102506.75
2023-02-06T06:13:47.225Z,102496.59
2023-02-06T06:15:53.831Z,102499.44
2023-02-06T06:17:59.226Z,102502.33
2023-02-06T06:20:04.237Z,102499.31
2023-02-06T06:22:09.597Z,102503.44
2023-02-06T06:27:43.314Z,102504.02
2023-02-06T06:29:51.368Z,102505.49
2023-02-06T06:31:57.068Z,102505.97
2023-02-06T06:34:02.419Z,102501.39
2023-02-06T06:36:07.649Z,102500.25
2023-02-06T06:38:12.903Z,102502.78
2023-02-06T06:40:18.446Z,102506.43
2023-02-06T06:42:23.903Z,102504.3
2023-02-06T06:44:29.296Z,102508.47
2023-02-06T06:46:34.392Z,102506.76
2023-02-06T06:48:39.613Z,102510.56
2023-02-06T06:50:44.891Z,102516.52
2023-02-06T06:52:50.274Z,102515.45
2023-02-06T06:54:55.568Z,102518.25
2023-02-06T06:57:00.916Z,102515.02
2023-02-06T06:59:06.103Z,102516.8
2023-02-06T07:01:11.379Z,102510.38
2023-02-06T07:03:16.751Z,102513.16
2023-02-06T07:05:22.292Z,102511.34
2023-02-06T07:07:27.746Z,102513.63
2023-02-06T07:09:33.259Z,102516.83
2023-02-06T07:11:38.564Z,102518.29
2023-02-06T07:13:45.797Z,102521.19
2023-02-06T07:15:51.035Z,102524.25
2023-02-06T07:17:56.273Z,102527.9
2023-02-06T07:20:01.645Z,102528.73
2023-02-06T07:22:06.915Z,102525.23
2023-02-06T07:24:12.101Z,102530.98
2023-02-06T07:26:17.379Z,102531.03
2023-02-06T07:28:22.831Z,102531.42
2023-02-06T07:30:28.284Z,102537.91
2023-02-06T07:32:33.748Z,102532.55
2023-02-06T07:34:39.264Z,102529.69
2023-02-06T07:36:44.684Z,102530.36
2023-02-06T07:38:49.981Z,102524.98
2023-02-06T07:40:55.195Z,102523.41
2023-02-06T07:43:00.579Z,102520.48
2023-02-06T07:45:05.797Z,102518.08
2023-02-06T07:47:10.934Z,102518.14
2023-02-06T07:49:16.485Z,102524.23
2023-02-06T07:51:21.664Z,102526.3
2023-02-06T07:53:27.142Z,102527.73
2023-02-06T07:55:32.709Z,102528.72
2023-02-06T07:57:38.815Z,102527.2
2023-02-06T07:59:44.297Z,102530.44
2023-02-06T08:01:55.600Z,102528.83
2023-02-06T08:04:03.614Z,102528.94
2023-02-06T08:06:09.142Z,102527.53
2023-02-06T08:08:14.448Z,102527.55
2023-02-06T08:10:19.704Z,102530.2
2023-02-06T08:12:24.874Z,102524.48
2023-02-06T08:14:30.241Z,102530.43
2023-02-06T08:16:35.718Z,102533.58
2023-02-06T08:18:41.298Z,102535.13
2023-02-06T08:20:46.804Z,102541.38
2023-02-06T08:22:58.399Z,102543.52
2023-02-06T08:25:03.741Z,102550.63
2023-02-06T08:27:08.920Z,102546.98
2023-02-06T08:29:14.340Z,102545.67
2023-02-06T08:31:19.898Z,102546.18
2023-02-06T08:33:25.554Z,102544.25
2023-02-06T08:35:30.840Z,102542.94
2023-02-06T08:37:36.259Z,102539.8
2023-02-06T08:39:42.495Z,102540.65
2023-02-06T08:41:47.861Z,102545.39
2023-02-06T08:43:53.226Z,102544.59
2023-02-06T08:45:58.636Z,102541.7
2023-02-06T08:48:09.612Z,102540.92
2023-02-06T08:50:14.861Z,102538.38
2023-02-06T08:52:20.184Z,102535.08
2023-02-06T08:54:25.530Z,102535.53
2023-02-06T08:56:31.068Z,102538.38
2023-02-06T08:58:36.818Z,102531.52
2023-02-06T09:00:42.365Z,102531.48
2023-02-06T09:02:52.989Z,102539.11
2023-02-06T09:04:58.705Z,102533.55
2023-02-06T09:07:04.125Z,102534.19
2023-02-06T09:09:09.512Z,102540.91
2023-02-06T09:11:14.825Z,102537.5
2023-02-06T09:13:20.680Z,102536.66
2023-02-06T09:15:27.252Z,102539.17
2023-02-06T09:17:32.529Z,102540.09
2023-02-06T09:19:37.910Z,102546.23
2023-02-06T09:21:44.491Z,102545.75
2023-02-06T09:23:55.862Z,102550.25
2023-02-06T09:26:01.777Z,102548.82
2023-02-06T09:28:07.721Z,102551.53
2023-02-06T09:30:14.191Z,102555.28
2023-02-06T09:32:19.891Z,102553.7
2023-02-06T09:34:25.463Z,102553.3
2023-02-06T09:36:31.859Z,102549.05
2023-02-06T09:38:37.606Z,102543.05
2023-02-06T09:40:44.398Z,102541.98
2023-02-06T09:42:50.429Z,102538.84
2023-02-06T09:44:56.446Z,102536.72
2023-02-06T09:47:03.068Z,102536.6
2023-02-06T09:49:08.678Z,102535.36
2023-02-06T09:51:13.926Z,102530.2
2023-02-06T09:53:19.248Z,102533.63
2023-02-06T09:55:24.619Z,102537.83
2023-02-06T09:57:30.238Z,102538.05
2023-02-06T09:59:35.602Z,102533.88
2023-02-06T10:01:40.852Z,102535.79
2023-02-06T10:03:46.435Z,102527.16
2023-02-06T10:05:51.850Z,102526.03
2023-02-06T10:07:57.143Z,102533.33
2023-02-06T10:10:02.254Z,102528.91
2023-02-06T10:12:07.809Z,102530.89
2023-02-06T10:14:12.974Z,102526.91
2023-02-06T10:16:18.296Z,102519.89
2023-02-06T10:18:23.733Z,102517.07
2023-02-06T10:20:29.153Z,102519.63
2023-02-06T10:22:34.629Z,102508.14
2023-02-06T10:24:40.833Z,102504.13
2023-02-06T10:26:46.075Z,102502.45
2023-02-06T10:28:51.345Z,102501.63
2023-02-06T10:30:56.700Z,102498.96
2023-02-06T10:33:02.358Z,102493.86
2023-02-06T10:35:14.902Z,102485.63
2023-02-06T10:37:20.105Z,102484.77
2023-02-06T10:39:25.386Z,102484.77
2023-02-06T10:41:30.589Z,102486.39
2023-02-06T10:43:35.700Z,102482.87
2023-02-06T10:45:41.157Z,102482.2
2023-02-06T10:47:46.660Z,102479.3
2023-02-06T10:49:52.062Z,102470.2
2023-02-06T10:51:57.438Z,102467.04
2023-02-06T10:54:02.828Z,102462.03
2023-02-06T10:56:08.200Z,102467.56
2023-02-06T10:58:13.574Z,102465.75
2023-02-06T11:00:20.402Z,102467.77
2023-02-06T11:02:26.481Z,102469.52
2023-02-06T11:04:32.218Z,102469.67
2023-02-06T11:06:38.262Z,102479.87
2023-02-06T11:08:43.513Z,102476.5
2023-02-06T11:10:48.677Z,102478.48
2023-02-06T11:12:54.208Z,102480.11
2023-02-06T11:14:59.723Z,102476.75
2023-02-06T11:17:05.089Z,102470.27
2023-02-06T11:19:10.382Z,102468.72
2023-02-06T11:21:16.792Z,102473.28
2023-02-06T11:23:22.187Z,102470.58
2023-02-06T11:25:27.604Z,102471.41
2023-02-06T11:27:33.166Z,102476.11
2023-02-06T11:29:38.234Z,102477.45
2023-02-06T11:31:44.866Z,102476.59
2023-02-06T11:33:50.507Z,102479.34
2023-02-06T11:35:55.565Z,102481.83
2023-02-06T11:38:00.666Z,102491.84
2023-02-06T11:40:11.746Z,102491.61
2023-02-06T11:42:17.237Z,102499.92
2023-02-06T11:44:22.751Z,102503.97
2023-02-06T11:46:28.068Z,102500.89
2023-02-06T11:48:33.162Z,102499.55
2023-02-06T11:50:39.133Z,102493.36
2023-02-06T11:52:48.204Z,102492.95
2023-02-06T11:54:53.432Z,102496.16
2023-02-06T11:56:59.825Z,102497.61
2023-02-06T11:59:08.152Z,102498
2023-02-06T12:01:13.979Z,102503.59
2023-02-06T12:03:19.617Z,102509.23
2023-02-06T12:05:25.236Z,102507.05
2023-02-06T12:07:30.853Z,102506.56
2023-02-06T12:09:36.215Z,102504.74
2023-02-06T12:11:42.436Z,102505.65
2023-02-06T12:13:47.810Z,102500.91
2023-02-06T12:15:54.573Z,102497.34
2023-02-06T12:18:00.642Z,102505.75
2023-02-06T12:20:05.714Z,102510.07
2023-02-06T12:22:11.990Z,102514.8
2023-02-06T12:24:20.801Z,102509.06
2023-02-06T12:26:26.950Z,102493.7
2023-02-06T12:28:32.174Z,102487.83
2023-02-06T12:30:38.255Z,102493.78
2023-02-06T12:32:44.105Z,102492.7
2023-02-06T12:34:50.046Z,102486.11
2023-02-06T12:36:55.475Z,102491.55
2023-02-06T12:39:01.431Z,102492.2
2023-02-06T12:41:07.004Z,102490.91
2023-02-06T12:43:13.118Z,102493.2
2023-02-06T12:45:18.846Z,102495.06
2023-02-06T12:47:24.546Z,102492.03
2023-02-06T12:49:32.165Z,102493.67
2023-02-06T12:51:40.621Z,102498.91
2023-02-06T12:53:46.106Z,102500.76
2023-02-06T12:55:52.162Z,102498.38
2023-02-06T12:57:58.359Z,102498.73
2023-02-06T13:00:04.288Z,102493.66
2023-02-06T13:02:10.709Z,102491.06
2023-02-06T13:04:17.221Z,102489.63
2023-02-06T13:06:22.986Z,102500.05
2023-02-06T13:08:28.908Z,102500.23
2023-02-06T13:10:34.506Z,102500.96
2023-02-06T13:12:41.907Z,102507.77
2023-02-06T13:14:48.660Z,102513.3
2023-02-06T13:16:54.366Z,102510.66
2023-02-06T13:18:59.901Z,102507.67
2023-02-06T13:21:04.979Z,102507.2
2023-02-06T13:23:10.646Z,102513.28
2023-02-06T13:25:17.295Z,102513.33
2023-02-06T13:27:23.673Z,102512.66
2023-02-06T13:29:29.881Z,102513.81
2023-02-06T13:31:37.321Z,102514.82
2023-02-06T13:33:43.493Z,102512.67
2023-02-06T13:35:49.554Z,102512.94
2023-02-06T13:38:00.295Z,102515.8
2023-02-06T13:40:06.399Z,102514.16
2023-02-06T13:42:13.159Z,102513.75
2023-02-06T13:44:21.218Z,102515.72
2023-02-06T13:46:27.805Z,102511.66
2023-02-06T13:48:34.003Z,102510.95
2023-02-06T13:50:40.259Z,102504.83
2023-02-06T13:52:45.955Z,102501.89
2023-02-06T13:54:52.134Z,102503.5
2023-02-06T13:56:58.289Z,102508.16
2023-02-06T13:59:04.706Z,102502.13
2023-02-06T14:01:11.141Z,102505.93
2023-02-06T14:03:17.933Z,102506.19
2023-02-06T14:05:24.159Z,102509.15
2023-02-06T14:07:30.796Z,102508.39
2023-02-06T14:09:37.238Z,102508.28
2023-02-06T14:11:47.442Z,102501.91
2023-02-06T14:13:54.882Z,102497.92
2023-02-06T14:16:01.202Z,102490.02
2023-02-06T14:18:08.720Z,102486.02
2023-02-06T14:20:15.160Z,102490.17
2023-02-06T14:22:20.871Z,102490.11
2023-02-06T14:24:26.848Z,102487.52
2023-02-06T14:26:33.662Z,102485.11
2023-02-06T14:28:40.130Z,102488.2
2023-02-06T14:30:51.135Z,102490.88
2023-02-06T14:32:58.072Z,102498.39
2023-02-06T14:35:04.835Z,102500.58
2023-02-06T14:37:11.221Z,102498
2023-02-06T14:39:17.269Z,102495.56
2023-02-06T14:41:22.956Z,102494.5
2023-02-06T14:43:30.520Z,102497.06
2023-02-06T14:45:44.992Z,102494.25
2023-02-06T14:48:13.814Z,102491.3
2023-02-06T14:50:20.196Z,102492.11
2023-02-06T14:52:26.534Z,102490.88
2023-02-06T14:54:33.308Z,102490.06
2023-02-06T14:56:39.349Z,102495.38
2023-02-06T14:58:45.363Z,102500.77
2023-02-06T15:00:51.436Z,102503.17
2023-02-06T15:02:57.780Z,102504.23
2023-02-06T15:05:04.162Z,102505.61
2023-02-06T15:07:10.569Z,102509.47
2023-02-06T15:09:16.964Z,102512.38
2023-02-06T15:11:23.755Z,102511.61
2023-02-06T15:13:31.363Z,102516.59
2023-02-06T15:15:38.571Z,102522.09
2023-02-06T15:17:47.166Z,102525.05
2023-02-06T15:19:53.578Z,102523.96
2023-02-06T15:21:59.876Z,102527.14
2023-02-06T15:24:06.317Z,102529.81
2023-02-06T15:26:13.610Z,102527.86
2023-02-06T15:28:20.018Z,102530.55
2023-02-06T15:30:27.836Z,102531.58
2023-02-06T15:32:34.140Z,102532.93
2023-02-06T15:34:40.495Z,102536.17
2023-02-06T15:36:46.663Z,102535.84
2023-02-06T15:38:52.938Z,102537.48
2023-02-06T15:43:49.098Z,102537.59
2023-02-06T15:45:55.468Z,102534.58
2023-02-06T15:48:02.084Z,102540.84
2023-02-06T15:50:11.237Z,102541.69
2023-02-06T15:52:19.579Z,102547.55
2023-02-06T15:54:25.821Z,102551
2023-02-06T15:56:31.860Z,102546.84
2023-02-06T15:58:38.413Z,102543.41
2023-02-06T16:00:45.133Z,102543.53
2023-02-06T16:02:51.352Z,102541.65
2023-02-06T16:04:57.669Z,102548.38
2023-02-06T16:07:03.789Z,102550.92
2023-02-06T16:09:09.019Z,102555.84
2023-02-06T16:11:14.671Z,102554.78
2023-02-06T16:13:20.156Z,102559.02
2023-02-06T16:15:25.746Z,102558.38
2023-02-06T16:17:32.189Z,102564.74
2023-02-06T16:19:38.089Z,102572.02
2023-02-06T16:21:43.622Z,102574.88
2023-02-06T16:23:52.893Z,102583.75
2023-02-06T16:25:58.563Z,102587.86
2023-02-06T16:28:04.351Z,102596.63
2023-02-06T16:30:09.691Z,102596.63
2023-02-06T16:32:15.323Z,102594.14
2023-02-06T16:34:20.548Z,102592.45
2023-02-06T16:36:26.152Z,102595.45
2023-02-06T16:38:31.858Z,102594.18
2023-02-06T16:40:38.053Z,102596.46
2023-02-06T16:42:44.040Z,102599.23
2023-02-06T16:44:51.431Z,102605.02
2023-02-06T16:46:57.057Z,102603.31
2023-02-06T16:49:02.394Z,102602.02
2023-02-06T16:51:07.839Z,102593.91
2023-02-06T16:53:13.971Z,102600.02
2023-02-06T16:55:20.917Z,102604.94
2023-02-06T16:57:28.194Z,102599.42
2023-02-06T16:59:34.064Z,102598.93
2023-02-06T17:01:39.321Z,102599.03
2023-02-06T17:03:46.059Z,102600.83
2023-02-06T17:05:53.055Z,102598.73
2023-02-06T17:08:00.408Z,102600.3
2023-02-06T17:10:06.175Z,102597.03
2023-02-06T17:12:12.377Z,102600.42
2023-02-06T17:14:18.019Z,102601.02
2023-02-06T17:16:23.731Z,102597.77
2023-02-06T17:18:30.324Z,102599.98
2023-02-06T17:20:38.630Z,102602.95
2023-02-06T17:22:48.407Z,102608.52
2023-02-06T17:24:55.863Z,102608.63
2023-02-06T17:27:03.103Z,102610.63
2023-02-06T17:29:11.611Z,102605.12
2023-02-06T17:31:18.535Z,102604.14
2023-02-06T17:33:25.538Z,102602.61
2023-02-06T17:35:34.226Z,102598.23
2023-02-06T17:37:40.538Z,102602.17
2023-02-06T17:39:47.192Z,102602.84
2023-02-06T17:41:53.449Z,102609.76
2023-02-06T17:43:59.602Z,102607.03
2023-02-06T17:46:06.137Z,102607.02
2023-02-06T17:48:14.604Z,102605.29
2023-02-06T17:50:21.767Z,102606.55
2023-02-06T17:52:29.835Z,102602.23
2023-02-06T17:54:38.535Z,102599.74
2023-02-06T17:56:44.737Z,102599.62
2023-02-06T17:58:52.215Z,102610.28
2023-02-06T18:01:01.266Z,102610.05
2023-02-06T18:03:09.633Z,102614.72
2023-02-06T18:05:17.609Z,102620.92
2023-02-06T18:07:24.297Z,102626.67
2023-02-06T18:09:32.248Z,102627.37
2023-02-06T18:11:39.701Z,102622.48
2023-02-06T18:13:47.247Z,102617.55
2023-02-06T18:15:55.277Z,102618.39
2023-02-06T18:18:03.173Z,102617.19
2023-02-06T18:20:13.178Z,102613.28
2023-02-06T18:22:42.087Z,102614.88
2023-02-06T18:24:52.275Z,102615
2023-02-06T18:26:59.827Z,102616.44
2023-02-06T18:29:12.173Z,102619.27
2023-02-06T18:31:25.203Z,102621.76
2023-02-06T18:33:34.893Z,102620.05
2023-02-06T18:35:44.205Z,102621.98
2023-02-06T18:37:55.247Z,102613.8
2023-02-06T18:40:06.334Z,102613.45
2023-02-06T18:42:15.698Z,102619
2023-02-06T18:44:24.964Z,102617.56
2023-02-06T18:46:33.991Z,102622.36
2023-02-06T18:48:41.598Z,102619.83
2023-02-06T18:50:54.245Z,102619.16
2023-02-06T18:53:04.870Z,102617.88
2023-02-06T18:55:14.793Z,102625.58
2023-02-06T18:57:23.649Z,102628.36
2023-02-06T18:59:31.112Z,102623.5
2023-02-06T19:01:39.780Z,102617.89
2023-02-06T19:03:55.247Z,102618.14
2023-02-06T19:06:03.144Z,102621.38
2023-02-06T19:08:15.593Z,102625.63
2023-02-06T19:10:29.650Z,102627.45
2023-02-06T19:12:55.644Z,102635.16
2023-02-06T19:15:07.053Z,102629.91
2023-02-06T19:17:17.440Z,102639.2
2023-02-06T19:19:38.285Z,102639.69
2023-02-06T19:21:47.957Z,102641.91
2023-02-06T19:23:57.403Z,102638.02
2023-02-06T19:26:08.975Z,102626.15
2023-02-06T19:28:17.636Z,102626.62
2023-02-06T19:30:26.122Z,102630.17
2023-02-06T19:32:34.879Z,102635.66
2023-02-06T19:34:48.054Z,102637.02
2023-02-06T19:37:00.910Z,102636.62
2023-02-06T19:39:16.587Z,102640.8
2023-02-06T19:41:30.174Z,102641.13
2023-02-06T19:43:39.088Z,102646.7
2023-02-06T19:45:50.428Z,102641.5
2023-02-06T19:48:01.922Z,102639.86
2023-02-06T19:50:26.388Z,102637.59
2023-02-06T19:52:35.982Z,102641.81
2023-02-06T19:54:53.336Z,102645.05
2023-02-06T19:57:06.023Z,102637.75
2023-02-06T19:59:16.407Z,102639.6
2023-02-06T20:01:25.237Z,102637.27
2023-02-06T20:03:33.135Z,102635.03
2023-02-06T20:05:43.844Z,102640.16
2023-02-06T20:07:53.541Z,102647.53
2023-02-06T20:10:06.389Z,102652.42
2023-02-06T20:12:15.222Z,102649.92
2023-02-06T20:14:29.147Z,102657.86
2023-02-06T20:16:41.829Z,102669
2023-02-06T20:18:51.523Z,102668.59
2023-02-06T20:21:02.844Z,102661.09
2023-02-06T20:23:14.754Z,102640.06
2023-02-06T20:25:23.592Z,102625.73
2023-02-06T20:27:39.291Z,102640.13
2023-02-06T20:29:47.057Z,102639.99
2023-02-06T20:31:56.453Z,102642.45
2023-02-06T20:34:06.828Z,102637.98
2023-02-06T20:36:19.018Z,102640.75
2023-02-06T20:38:24.659Z,102639.98
2023-02-06T20:40:32.180Z,102641.36
2023-02-06T20:42:38.618Z,102639.59
2023-02-06T20:44:44.605Z,102641.64
2023-02-06T20:46:52.282Z,102645.02
2023-02-06T20:49:00.169Z,102641.52
2023-02-06T20:51:07.917Z,102642.72
2023-02-06T20:53:14.629Z,102646.32
2023-02-06T20:55:20.924Z,102650.95
2023-02-06T20:57:29.835Z,102652.34
2023-02-06T20:59:43.856Z,102655.49
2023-02-06T21:01:50.381Z,102656.27
2023-02-06T21:03:55.680Z,102663.38
2023-02-06T21:06:01.522Z,102668.34
2023-02-06T21:08:07.660Z,102674.62
2023-02-06T21:10:15.032Z,102676.27
2023-02-06T21:12:22.008Z,102677.22
2023-02-06T21:14:29.786Z,102677.16
2023-02-06T21:16:35.330Z,102674.91
2023-02-06T21:18:40.702Z,102680.28
2023-02-06T21:20:46.106Z,102677.95
2023-02-06T21:22:51.826Z,102678.22
2023-02-06T21:24:57.988Z,102682.83
2023-02-06T21:27:04.156Z,102684.08
2023-02-06T21:29:09.446Z,102689.11
2023-02-06T21:31:15.387Z,102682.41
2023-02-06T21:33:21.359Z,102681.59
2023-02-06T21:35:26.986Z,102686.63
2023-02-06T21:37:32.569Z,102685.3
2023-02-06T21:39:37.824Z,102681.8
2023-02-06T21:41:43.419Z,102683.11
2023-02-06T21:43:48.973Z,102679.95
2023-02-06T21:45:56.340Z,102678.52
2023-02-06T21:48:03.571Z,102656.53
2023-02-06T21:50:09.163Z,102660.22
2023-02-06T21:52:14.476Z,102658.57
2023-02-06T21:54:19.885Z,102655.88
2023-02-06T21:56:25.266Z,102658.36
2023-02-06T21:58:30.518Z,102662.67
2023-02-06T22:00:35.982Z,102655.62
2023-02-06T22:02:41.678Z,102651.55
2023-02-06T22:04:47.204Z,102661.61
2023-02-06T22:06:52.370Z,102668.39
2023-02-06T22:08:57.694Z,102660.14
2023-02-06T22:11:02.944Z,102655.44
2023-02-06T22:13:08.053Z,102662.62
2023-02-06T22:15:13.326Z,102665.31
2023-02-06T22:17:18.590Z,102664.64
2023-02-06T22:19:23.893Z,102670.95
2023-02-06T22:21:29.248Z,102663.28
2023-02-06T22:23:34.692Z,102663.31
2023-02-06T22:25:40.703Z,102657.6
2023-02-06T22:27:46.121Z,102648.23
2023-02-06T22:29:51.493Z,102645.92
2023-02-06T22:31:57.097Z,102644.19
2023-02-06T22:34:02.370Z,102647.55
2023-02-06T22:36:08.057Z,102647.66
2023-02-06T22:38:13.248Z,102644.63
2023-02-06T22:40:18.423Z,102645.27
2023-02-06T22:42:23.867Z,102641.58
2023-02-06T22:44:29.568Z,102635.39
2023-02-06T22:46:34.899Z,102634.78
2023-02-06T22:48:40.530Z,102639.61
2023-02-06T22:50:45.879Z,102639.84
2023-02-06T22:52:51.196Z,102637.2
2023-02-06T22:54:56.421Z,102636.94
2023-02-06T22:57:01.804Z,102633.18
2023-02-06T22:59:07.222Z,102632.38
2023-02-06T23:01:12.530Z,102631.09
2023-02-06T23:03:17.764Z,102630.09
2023-02-06T23:05:23.103Z,102628.67
2023-02-06T23:07:28.520Z,102631.88
2023-02-06T23:09:33.780Z,102627.89
2023-02-06T23:11:39.084Z,102634.32
2023-02-06T23:13:44.470Z,102635.63
2023-02-06T23:15:49.761Z,102634.16
2023-02-06T23:17:55.475Z,102635.84
2023-02-06T23:20:00.853Z,102635.38
2023-02-06T23:22:06.113Z,102639.59
2023-02-06T23:24:11.325Z,102639.95
2023-02-06T23:26:16.621Z,102640.44
2023-02-06T23:28:21.904Z,102645.27
2023-02-06T23:30:27.321Z,102641.81
2023-02-06T23:32:32.492Z,102643.63
2023-02-06T23:34:40.347Z,102640.03
2023-02-06T23:36:45.857Z,102633.39
2023-02-06T23:38:51.165Z,102628.39
2023-02-06T23:40:57.005Z,102624.42
2023-02-06T23:43:02.292Z,102622.83
2023-02-06T23:45:07.612Z,102622.44
2023-02-06T23:47:12.838Z,102623.39
2023-02-06T23:49:18.054Z,102623.29
2023-02-06T23:51:23.433Z,102621.91
2023-02-06T23:53:28.596Z,102617.39
2023-02-06T23:55:33.937Z,102616.89
2023-02-06T23:57:39.974Z,102616.33
2023-02-06T23:59:45.270Z,102619.5
